Capt. Ted — WDD6210 — position and weather

sailwx.info

Track history (hours):
 
Tides and Currents Weather Stations Pressure Air Temp Water Temp Dewpoint Dewpoint Depression Visibility Wind Speed Wind Dir Waves Ship Positions

Capt. Ted

Owner: Salisbury Towing Corporation, Havre de Grace, MD. More information available from US FCC via Universal Licensing System and Coast Guard Vessel Documentation Center.

Last reported at 2017-Feb-20 10:30 UTC. Time now 2017-Feb-20 11:08 UTC.
Position N 39°16' W 076°35'.

Length 32 m; draft 2.8 m.

Type: Tug. MMSI: 367169710.

Date/timePositionNaut miles runAvg speedWind from/ knotsBaromVisibWave heightAir tempDewpointWater temp
2017-Feb-20 10:30N 39°16' W 076°35'0 0.0
2017-Feb-20 09:30N 39°16' W 076°35'0 0.0
2017-Feb-20 08:18N 39°16' W 076°35'0 0.0
2017-Feb-20 07:16N 39°16' W 076°35'0 0.0
2017-Feb-20 06:24N 39°16' W 076°35'0 0.0
2017-Feb-20 05:26N 39°16' W 076°35'0 0.0
2017-Feb-20 04:30N 39°16' W 076°35'0 0.0
2017-Feb-20 03:30N 39°16' W 076°35'0 0.0
2017-Feb-20 02:33N 39°16' W 076°35'0 0.0
2017-Feb-20 01:33N 39°16' W 076°35'0 0.3
2017-Feb-20 00:33N 39°15' W 076°35'8 7.6
2017-Feb-19 23:33N 39°11' W 076°27'4 4.0
2017-Feb-19 22:27N 39°09' W 076°22'8 9.5
2017-Feb-19 21:33N 39°13' W 076°32'4 4.0
2017-Feb-19 20:33N 39°15' W 076°36'0 0.0
2017-Feb-19 19:33N 39°15' W 076°36'0 0.0
2017-Feb-19 18:33N 39°15' W 076°36'0 0.0
2017-Feb-19 17:33N 39°15' W 076°36'0 0.0
2017-Feb-19 16:33N 39°15' W 076°36'0 0.0
2017-Feb-19 15:33N 39°15' W 076°36'0 0.0
2017-Feb-19 14:33N 39°15' W 076°36'1 1.2
2017-Feb-19 13:33N 39°16' W 076°35'4 4.4
2017-Feb-19 12:33N 39°13' W 076°31'5 4.7
2017-Feb-19 11:33N 39°11' W 076°25'18 4.3
2017-Feb-19 07:23N 39°23' W 076°07'4 3.9
2017-Feb-19 06:25N 39°25' W 076°03'3 3.4
2017-Feb-19 05:33N 39°28' W 076°03'4 4.0
2017-Feb-19 04:33N 39°31' W 076°05'1 1.4
2017-Feb-19 03:33N 39°33' W 076°05'5 5.2
2017-Feb-19 02:33N 39°28' W 076°03'5 5.4
2017-Feb-19 01:33N 39°23' W 076°06'6 5.6
2017-Feb-19 00:33N 39°20' W 076°12'6 5.5
2017-Feb-18 23:33N 39°16' W 076°17'8 6.3
2017-Feb-18 22:21N 39°12' W 076°25'5 6.1
2017-Feb-18 21:33N 39°13' W 076°31'4 4.5
2017-Feb-18 20:33N 39°15' W 076°36'4 4.5
2017-Feb-18 19:33N 39°13' W 076°31'8 8.5
2017-Feb-18 18:33N 39°06' W 076°24'3 2.9
2017-Feb-18 17:33N 39°09' W 076°25'5 4.7
2017-Feb-18 16:33N 39°12' W 076°30'6 5.7
2017-Feb-18 15:33N 39°16' W 076°35'0 0.1
2017-Feb-18 14:33N 39°16' W 076°35'2 2.3
2017-Feb-18 13:33N 39°14' W 076°34'0 0.0
2017-Feb-18 12:33N 39°14' W 076°34'0 0.0
2017-Feb-18 11:33N 39°14' W 076°34'2 2.2
2017-Feb-18 10:33N 39°16' W 076°35'1 1.1
2017-Feb-18 09:32N 39°15' W 076°36'5 4.9
2017-Feb-18 08:33N 39°12' W 076°31'6 5.9
2017-Feb-18 07:33N 39°12' W 076°23'6 6.0
2017-Feb-18 06:32N 39°16' W 076°16'11 5.8
2017-Feb-18 04:33N 39°23' W 076°05'5 4.9
2017-Feb-18 03:33N 39°28' W 076°03'5 5.1
2017-Feb-18 02:33N 39°33' W 076°04'0 0.3
2017-Feb-18 01:33N 39°33' W 076°05'7 6.8
2017-Feb-18 00:33N 39°26' W 076°02'7 6.9
2017-Feb-17 23:33N 39°22' W 076°09'22 7.5
2017-Feb-17 20:33N 39°02' W 076°22'59 7.4
2017-Feb-17 12:33N 38°03' W 076°24'7 6.6
2017-Feb-17 11:29N 37°58' W 076°17'52 1.0
2017-Feb-15 09:04N 38°50' W 076°26'6 7.2
2017-Feb-15 08:17N 38°55' W 076°24'6 7.9
2017-Feb-15 07:33N 39°01' W 076°22'7 7.4
2017-Feb-15 06:33N 39°08' W 076°20'20 6.6
2017-Feb-15 03:33N 39°24' W 076°04'5 5.1
2017-Feb-15 02:33N 39°29' W 076°04'6 5.3
2017-Feb-15 01:28N 39°34' W 076°06'4 4.6
2017-Feb-15 00:33N 39°30' W 076°05'6 6.2
2017-Feb-14 23:33N 39°24' W 076°03'7 7.1
2017-Feb-14 22:33N 39°20' W 076°11'15 6.8
2017-Feb-14 20:17N 39°11' W 076°27'5 7.5
2017-Feb-14 19:33N 39°14' W 076°33'3 2.9
2017-Feb-14 18:33N 39°15' W 076°36'1 1.2
2017-Feb-14 17:33N 39°16' W 076°35'0 0.0
2017-Feb-14 16:33N 39°16' W 076°35'0 0.0
2017-Feb-14 15:33N 39°16' W 076°35'0 0.0
2017-Feb-14 14:33N 39°16' W 076°35'0 0.0
2017-Feb-14 13:33N 39°16' W 076°35'0 0.0
2017-Feb-14 12:33N 39°16' W 076°35'0 0.4
2017-Feb-14 11:33N 39°15' W 076°36'1 0.8
2017-Feb-14 10:33N 39°15' W 076°36'0 0.0
2017-Feb-14 04:13N 39°15' W 076°36'0 0.0
2017-Feb-14 03:27N 39°15' W 076°36'0 0.0
2017-Feb-14 02:33N 39°15' W 076°36'0 0.0
2017-Feb-14 01:33N 39°15' W 076°36'0 0.0
2017-Feb-14 00:33N 39°15' W 076°36'0 0.0
2017-Feb-13 23:33N 39°15' W 076°36'0 0.0
2017-Feb-13 22:32N 39°15' W 076°36'0 0.0
2017-Feb-13 21:31N 39°15' W 076°36'0 0.0
2017-Feb-13 20:18N 39°15' W 076°36'0 0.0
2017-Feb-13 19:28N 39°15' W 076°36'0 0.0
2017-Feb-13 18:33N 39°15' W 076°36'0 0.0
2017-Feb-13 17:33N 39°15' W 076°36'0 0.0
2017-Feb-13 16:31N 39°15' W 076°36'0 0.0
2017-Feb-13 15:33N 39°15' W 076°36'0 0.0
2017-Feb-13 14:33N 39°15' W 076°36'0 0.0
2017-Feb-13 13:33N 39°15' W 076°36'0 0.0
2017-Feb-13 12:33N 39°15' W 076°36'0 0.0
2017-Feb-13 11:33N 39°15' W 076°36'0 0.0
2017-Feb-13 10:33N 39°15' W 076°36'0 0.0
2017-Feb-13 09:33N 39°15' W 076°36'0 0.0
2017-Feb-13 08:33N 39°15' W 076°36'0 0.0
2017-Feb-13 07:33N 39°15' W 076°36'0 0.0
2017-Feb-13 06:33N 39°15' W 076°36'0 0.0
2017-Feb-13 05:33N 39°15' W 076°36'0 0.0
2017-Feb-13 04:33N 39°15' W 076°36'0 0.0
2017-Feb-13 03:33N 39°15' W 076°36'0 0.0
2017-Feb-13 02:31N 39°15' W 076°36'0 0.0
2017-Feb-13 01:33N 39°15' W 076°36'0 0.0
2017-Feb-13 00:33N 39°15' W 076°36'0 0.0
2017-Feb-12 23:33N 39°15' W 076°36'0 0.0
2017-Feb-12 22:33N 39°15' W 076°36'0 0.0
2017-Feb-12 21:33N 39°15' W 076°36'0 0.2
2017-Feb-12 20:33N 39°15' W 076°36'1 1.0
2017-Feb-12 19:33N 39°15' W 076°35'7 6.6
2017-Feb-12 18:33N 39°11' W 076°28'20 6.3
2017-Feb-12 15:27N 39°22' W 076°07'5 5.6
2017-Feb-12 14:33N 39°25' W 076°02'1 0.9
2017-Feb-12 13:33N 39°26' W 076°02'9 8.6
2017-Feb-12 12:33N 39°21' W 076°11'20 8.5
2017-Feb-12 10:10N 39°02' W 076°22'12 0.5
2017-Feb-11 07:33N 38°51' W 076°26'6 6.2
2017-Feb-11 06:33N 38°57' W 076°25'8 6.7
2017-Feb-11 05:25N 39°04' W 076°21'26 6.4
2017-Feb-11 01:26N 39°25' W 076°02'5 5.4
2017-Feb-11 00:33N 39°29' W 076°05'5 4.8
2017-Feb-10 23:29N 39°34' W 076°06'0 0.2
2017-Feb-10 22:33N 39°34' W 076°06'3 2.8
2017-Feb-10 21:33N 39°32' W 076°05'7 7.2
2017-Feb-10 20:33N 39°25' W 076°02'8 8.1
2017-Feb-10 19:33N 39°20' W 076°11'18 8.1
2017-Feb-10 17:21N 39°04' W 076°21'7 8.5
2017-Feb-10 16:31N 38°58' W 076°25'  
Track history (hours):
 
Tides and Currents Weather Stations Pressure Air Temp Water Temp Dewpoint Dewpoint Depression Visibility Wind Speed Wind Dir Waves Ship Positions

Capt. Ted

Owner: Salisbury Towing Corporation, Havre de Grace, MD. More information available from US FCC via Universal Licensing System and Coast Guard Vessel Documentation Center.

Last reported at 2017-Feb-20 10:30 UTC. Time now 2017-Feb-20 11:08 UTC.
Position N 39°16' W 076°35'.

Length 32 m; draft 2.8 m.

Type: Tug. MMSI: 367169710.

Date/timePositionNaut miles runAvg speedWind from/ knotsBaromVisibWave heightAir tempDewpointWater temp
2017-Feb-20 10:30N 39°16' W 076°35'0 0.0
2017-Feb-20 09:30N 39°16' W 076°35'0 0.0
2017-Feb-20 08:18N 39°16' W 076°35'0 0.0
2017-Feb-20 07:16N 39°16' W 076°35'0 0.0
2017-Feb-20 06:24N 39°16' W 076°35'0 0.0
2017-Feb-20 05:26N 39°16' W 076°35'0 0.0
2017-Feb-20 04:30N 39°16' W 076°35'0 0.0
2017-Feb-20 03:30N 39°16' W 076°35'0 0.0
2017-Feb-20 02:33N 39°16' W 076°35'0 0.0
2017-Feb-20 01:33N 39°16' W 076°35'0 0.3
2017-Feb-20 00:33N 39°15' W 076°35'8 7.6
2017-Feb-19 23:33N 39°11' W 076°27'4 4.0
2017-Feb-19 22:27N 39°09' W 076°22'8 9.5
2017-Feb-19 21:33N 39°13' W 076°32'4 4.0
2017-Feb-19 20:33N 39°15' W 076°36'0 0.0
2017-Feb-19 19:33N 39°15' W 076°36'0 0.0
2017-Feb-19 18:33N 39°15' W 076°36'0 0.0
2017-Feb-19 17:33N 39°15' W 076°36'0 0.0
2017-Feb-19 16:33N 39°15' W 076°36'0 0.0
2017-Feb-19 15:33N 39°15' W 076°36'0 0.0
2017-Feb-19 14:33N 39°15' W 076°36'1 1.2
2017-Feb-19 13:33N 39°16' W 076°35'4 4.4
2017-Feb-19 12:33N 39°13' W 076°31'5 4.7
2017-Feb-19 11:33N 39°11' W 076°25'18 4.3
2017-Feb-19 07:23N 39°23' W 076°07'4 3.9
2017-Feb-19 06:25N 39°25' W 076°03'3 3.4
2017-Feb-19 05:33N 39°28' W 076°03'4 4.0
2017-Feb-19 04:33N 39°31' W 076°05'1 1.4
2017-Feb-19 03:33N 39°33' W 076°05'5 5.2
2017-Feb-19 02:33N 39°28' W 076°03'5 5.4
2017-Feb-19 01:33N 39°23' W 076°06'6 5.6
2017-Feb-19 00:33N 39°20' W 076°12'6 5.5
2017-Feb-18 23:33N 39°16' W 076°17'8 6.3
2017-Feb-18 22:21N 39°12' W 076°25'5 6.1
2017-Feb-18 21:33N 39°13' W 076°31'4 4.5
2017-Feb-18 20:33N 39°15' W 076°36'4 4.5
2017-Feb-18 19:33N 39°13' W 076°31'8 8.5
2017-Feb-18 18:33N 39°06' W 076°24'3 2.9
2017-Feb-18 17:33N 39°09' W 076°25'5 4.7
2017-Feb-18 16:33N 39°12' W 076°30'6 5.7
2017-Feb-18 15:33N 39°16' W 076°35'0 0.1
2017-Feb-18 14:33N 39°16' W 076°35'2 2.3
2017-Feb-18 13:33N 39°14' W 076°34'0 0.0
2017-Feb-18 12:33N 39°14' W 076°34'0 0.0
2017-Feb-18 11:33N 39°14' W 076°34'2 2.2
2017-Feb-18 10:33N 39°16' W 076°35'1 1.1
2017-Feb-18 09:32N 39°15' W 076°36'5 4.9
2017-Feb-18 08:33N 39°12' W 076°31'6 5.9
2017-Feb-18 07:33N 39°12' W 076°23'6 6.0
2017-Feb-18 06:32N 39°16' W 076°16'11 5.8
2017-Feb-18 04:33N 39°23' W 076°05'5 4.9
2017-Feb-18 03:33N 39°28' W 076°03'5 5.1
2017-Feb-18 02:33N 39°33' W 076°04'0 0.3
2017-Feb-18 01:33N 39°33' W 076°05'7 6.8
2017-Feb-18 00:33N 39°26' W 076°02'7 6.9
2017-Feb-17 23:33N 39°22' W 076°09'22 7.5
2017-Feb-17 20:33N 39°02' W 076°22'59 7.4
2017-Feb-17 12:33N 38°03' W 076°24'7 6.6
2017-Feb-17 11:29N 37°58' W 076°17'52 1.0
2017-Feb-15 09:04N 38°50' W 076°26'6 7.2
2017-Feb-15 08:17N 38°55' W 076°24'6 7.9
2017-Feb-15 07:33N 39°01' W 076°22'7 7.4
2017-Feb-15 06:33N 39°08' W 076°20'20 6.6
2017-Feb-15 03:33N 39°24' W 076°04'5 5.1
2017-Feb-15 02:33N 39°29' W 076°04'6 5.3
2017-Feb-15 01:28N 39°34' W 076°06'4 4.6
2017-Feb-15 00:33N 39°30' W 076°05'6 6.2
2017-Feb-14 23:33N 39°24' W 076°03'7 7.1
2017-Feb-14 22:33N 39°20' W 076°11'15 6.8
2017-Feb-14 20:17N 39°11' W 076°27'5 7.5
2017-Feb-14 19:33N 39°14' W 076°33'3 2.9
2017-Feb-14 18:33N 39°15' W 076°36'1 1.2
2017-Feb-14 17:33N 39°16' W 076°35'0 0.0
2017-Feb-14 16:33N 39°16' W 076°35'0 0.0
2017-Feb-14 15:33N 39°16' W 076°35'0 0.0
2017-Feb-14 14:33N 39°16' W 076°35'0 0.0
2017-Feb-14 13:33N 39°16' W 076°35'0 0.0
2017-Feb-14 12:33N 39°16' W 076°35'0 0.4
2017-Feb-14 11:33N 39°15' W 076°36'1 0.8
2017-Feb-14 10:33N 39°15' W 076°36'0 0.0
2017-Feb-14 04:13N 39°15' W 076°36'0 0.0
2017-Feb-14 03:27N 39°15' W 076°36'0 0.0
2017-Feb-14 02:33N 39°15' W 076°36'0 0.0
2017-Feb-14 01:33N 39°15' W 076°36'0 0.0
2017-Feb-14 00:33N 39°15' W 076°36'0 0.0
2017-Feb-13 23:33N 39°15' W 076°36'0 0.0
2017-Feb-13 22:32N 39°15' W 076°36'0 0.0
2017-Feb-13 21:31N 39°15' W 076°36'0 0.0
2017-Feb-13 20:18N 39°15' W 076°36'0 0.0
2017-Feb-13 19:28N 39°15' W 076°36'0 0.0
2017-Feb-13 18:33N 39°15' W 076°36'0 0.0
2017-Feb-13 17:33N 39°15' W 076°36'0 0.0
2017-Feb-13 16:31N 39°15' W 076°36'0 0.0
2017-Feb-13 15:33N 39°15' W 076°36'0 0.0
2017-Feb-13 14:33N 39°15' W 076°36'0 0.0
2017-Feb-13 13:33N 39°15' W 076°36'0 0.0
2017-Feb-13 12:33N 39°15' W 076°36'0 0.0
2017-Feb-13 11:33N 39°15' W 076°36'0 0.0
2017-Feb-13 10:33N 39°15' W 076°36'0 0.0
2017-Feb-13 09:33N 39°15' W 076°36'0 0.0
2017-Feb-13 08:33N 39°15' W 076°36'0 0.0
2017-Feb-13 07:33N 39°15' W 076°36'0 0.0
2017-Feb-13 06:33N 39°15' W 076°36'0 0.0
2017-Feb-13 05:33N 39°15' W 076°36'0 0.0
2017-Feb-13 04:33N 39°15' W 076°36'0 0.0
2017-Feb-13 03:33N 39°15' W 076°36'0 0.0
2017-Feb-13 02:31N 39°15' W 076°36'0 0.0
2017-Feb-13 01:33N 39°15' W 076°36'0 0.0
2017-Feb-13 00:33N 39°15' W 076°36'0 0.0
2017-Feb-12 23:33N 39°15' W 076°36'0 0.0
2017-Feb-12 22:33N 39°15' W 076°36'0 0.0
2017-Feb-12 21:33N 39°15' W 076°36'0 0.2
2017-Feb-12 20:33N 39°15' W 076°36'1 1.0
2017-Feb-12 19:33N 39°15' W 076°35'7 6.6
2017-Feb-12 18:33N 39°11' W 076°28'20 6.3
2017-Feb-12 15:27N 39°22' W 076°07'5 5.6
2017-Feb-12 14:33N 39°25' W 076°02'1 0.9
2017-Feb-12 13:33N 39°26' W 076°02'9 8.6
2017-Feb-12 12:33N 39°21' W 076°11'20 8.5
2017-Feb-12 10:10N 39°02' W 076°22'12 0.5
2017-Feb-11 07:33N 38°51' W 076°26'6 6.2
2017-Feb-11 06:33N 38°57' W 076°25'8 6.7
2017-Feb-11 05:25N 39°04' W 076°21'26 6.4
2017-Feb-11 01:26N 39°25' W 076°02'5 5.4
2017-Feb-11 00:33N 39°29' W 076°05'5 4.8
2017-Feb-10 23:29N 39°34' W 076°06'0 0.2
2017-Feb-10 22:33N 39°34' W 076°06'3 2.8
2017-Feb-10 21:33N 39°32' W 076°05'7 7.2
2017-Feb-10 20:33N 39°25' W 076°02'8 8.1
2017-Feb-10 19:33N 39°20' W 076°11'18 8.1
2017-Feb-10 17:21N 39°04' W 076°21'7 8.5
2017-Feb-10 16:31N 38°58' W 076°25'  

Dump ship's entire track history